createdAt,value
2023-09-17T00:01:52.006Z,8.05
2023-09-17T00:04:18.664Z,8.82
2023-09-17T00:06:45.203Z,7.97
2023-09-17T00:09:11.808Z,8.43
2023-09-17T00:11:38.304Z,8.48
2023-09-17T00:14:04.806Z,8.05
2023-09-17T00:16:32.825Z,8.57
2023-09-17T00:18:59.785Z,7.97
2023-09-17T00:21:26.216Z,8.70
2023-09-17T00:23:52.920Z,8.18
2023-09-17T00:26:19.474Z,8.75
2023-09-17T00:28:46.224Z,7.85
2023-09-17T00:31:13.513Z,8.18
2023-09-17T00:33:40.012Z,8.25
2023-09-17T00:36:06.501Z,7.72
2023-09-17T00:38:32.944Z,10.48
2023-09-17T00:41:02.900Z,7.80
2023-09-17T00:43:31.375Z,8.90
2023-09-17T00:45:58.150Z,8.70
2023-09-17T00:48:26.061Z,9.15
2023-09-17T00:50:52.495Z,7.80
2023-09-17T00:53:18.921Z,8.27
2023-09-17T00:55:45.495Z,8.05
2023-09-17T00:58:12.140Z,8.80
2023-09-17T01:00:39.889Z,9.05
2023-09-17T01:03:07.821Z,8.93
2023-09-17T01:05:39.865Z,9.52
2023-09-17T01:08:07.232Z,8.32
2023-09-17T01:10:40.917Z,9.48
2023-09-17T01:13:07.987Z,8.40
2023-09-17T01:15:35.415Z,8.50
2023-09-17T01:18:06.314Z,8.15
2023-09-17T01:20:34.952Z,8.75
2023-09-17T01:23:04.318Z,9.45
2023-09-17T01:25:43.697Z,9.27
2023-09-17T01:28:12.837Z,9.80
2023-09-17T01:30:42.930Z,9.00
2023-09-17T01:33:12.946Z,9.85
2023-09-17T01:36:02.839Z,9.10
2023-09-17T01:38:33.514Z,9.38
2023-09-17T01:41:04.157Z,9.85
2023-09-17T01:43:31.283Z,9.68
2023-09-17T01:46:01.484Z,10.13
2023-09-17T01:48:29.068Z,9.20
2023-09-17T01:50:55.970Z,9.40
2023-09-17T01:53:22.817Z,9.40
2023-09-17T01:55:54.008Z,9.82
2023-09-17T01:58:23.017Z,9.50
2023-09-17T02:00:50.476Z,9.85
2023-09-17T02:03:17.117Z,9.27
2023-09-17T02:05:43.653Z,10.77
2023-09-17T02:08:10.212Z,9.65
2023-09-17T02:10:36.805Z,10.90
2023-09-17T02:13:04.169Z,9.80
2023-09-17T02:15:30.625Z,9.57
2023-09-17T02:17:57.090Z,9.30
2023-09-17T02:20:23.557Z,9.73
2023-09-17T02:22:50.079Z,10.27
2023-09-17T02:25:16.545Z,9.70
2023-09-17T02:27:43.059Z,10.40
2023-09-17T02:30:09.794Z,10.13
2023-09-17T02:32:38.561Z,9.40
2023-09-17T02:35:08.506Z,9.80
2023-09-17T02:37:35.292Z,9.63
2023-09-17T02:40:01.794Z,9.32
2023-09-17T02:42:29.560Z,10.25
2023-09-17T02:44:57.382Z,8.75
2023-09-17T02:47:23.878Z,9.65
2023-09-17T02:49:50.458Z,10.13
2023-09-17T02:52:23.008Z,10.35
2023-09-17T02:54:49.563Z,10.60
2023-09-17T02:57:16.027Z,11.07
2023-09-17T02:59:42.485Z,9.85
2023-09-17T03:02:09.093Z,8.98
2023-09-17T03:04:37.457Z,9.52
2023-09-17T03:07:05.464Z,9.75
2023-09-17T03:09:31.998Z,10.13
2023-09-17T03:11:58.618Z,9.70
2023-09-17T03:14:26.052Z,9.93
2023-09-17T03:16:52.599Z,9.55
2023-09-17T03:19:20.992Z,10.15
2023-09-17T03:21:47.870Z,9.93
2023-09-17T03:24:16.486Z,9.55
2023-09-17T03:26:43.363Z,9.88
2023-09-17T03:29:09.958Z,9.63
2023-09-17T03:31:38.035Z,9.27
2023-09-17T03:34:08.222Z,9.82
2023-09-17T03:36:38.418Z,9.82
2023-09-17T03:39:09.844Z,10.32
2023-09-17T03:41:42.163Z,10.35
2023-09-17T03:44:11.246Z,10.40
2023-09-17T03:46:38.485Z,10.90
2023-09-17T03:49:05.065Z,10.57
2023-09-17T03:51:31.988Z,11.10
2023-09-17T03:53:59.525Z,11.75
2023-09-17T03:56:26.993Z,11.23
2023-09-17T03:58:55.731Z,11.77
2023-09-17T04:01:23.508Z,12.40
2023-09-17T04:03:50.995Z,11.80
2023-09-17T04:06:19.517Z,11.57
2023-09-17T04:08:46.126Z,10.40
2023-09-17T04:11:17.297Z,11.75
2023-09-17T04:13:44.539Z,11.93
2023-09-17T04:16:11.764Z,11.60
2023-09-17T04:18:38.246Z,11.77
2023-09-17T04:21:04.950Z,11.60
2023-09-17T04:23:31.564Z,13.27
2023-09-17T04:25:58.075Z,14.02
2023-09-17T04:28:24.625Z,13.65
2023-09-17T04:30:51.145Z,14.55
2023-09-17T04:33:17.702Z,16.23
2023-09-17T04:35:44.249Z,16.05
2023-09-17T04:38:11.453Z,15.90
2023-09-17T04:40:38.174Z,16.52
2023-09-17T04:43:08.186Z,16.95
2023-09-17T04:45:34.800Z,17.45
2023-09-17T04:48:04.490Z,18.10
2023-09-17T04:50:31.631Z,18.83
2023-09-17T04:52:58.623Z,17.48
2023-09-17T04:55:26.448Z,19.17
2023-09-17T04:57:53.426Z,20.70
2023-09-17T05:00:21.528Z,19.08
2023-09-17T05:02:49.358Z,19.15
2023-09-17T05:05:21.026Z,18.85
2023-09-17T05:07:49.953Z,18.83
2023-09-17T05:10:16.746Z,19.98
2023-09-17T05:12:43.889Z,19.20
2023-09-17T05:15:10.924Z,20.65
2023-09-17T05:17:38.041Z,21.05
2023-09-17T05:20:07.596Z,20.95
2023-09-17T05:22:34.871Z,18.67
2023-09-17T05:25:02.968Z,20.52
2023-09-17T05:27:29.415Z,19.27
2023-09-17T05:29:56.021Z,21.20
2023-09-17T05:32:22.928Z,20.83
2023-09-17T05:34:49.619Z,20.65
2023-09-17T05:37:17.149Z,21.55
2023-09-17T05:39:44.501Z,20.27
2023-09-17T05:42:11.265Z,20.10
2023-09-17T05:44:37.865Z,20.85
2023-09-17T05:47:04.980Z,20.85
2023-09-17T05:49:32.533Z,21.88
2023-09-17T05:52:00.448Z,22.08
2023-09-17T05:54:28.089Z,21.17
2023-09-17T05:56:54.590Z,21.40
2023-09-17T05:59:22.100Z,19.58
2023-09-17T06:01:49.827Z,22.40
2023-09-17T06:04:16.417Z,21.58
2023-09-17T06:06:42.903Z,20.90
2023-09-17T06:09:11.866Z,21.60
2023-09-17T06:11:38.585Z,22.75
2023-09-17T06:14:07.727Z,22.17
2023-09-17T06:16:50.087Z,22.63
2023-09-17T06:19:21.617Z,20.33
2023-09-17T06:21:48.087Z,22.45
2023-09-17T06:24:14.678Z,21.52
2023-09-17T06:26:41.293Z,22.60
2023-09-17T06:29:08.595Z,24.27
2023-09-17T06:31:35.257Z,23.50
2023-09-17T06:34:01.896Z,22.65
2023-09-17T06:36:29.534Z,23.13
2023-09-17T06:38:58.494Z,22.70
2023-09-17T06:41:25.034Z,24.52
2023-09-17T06:43:51.657Z,23.75
2023-09-17T06:46:22.868Z,22.38
2023-09-17T06:48:49.588Z,21.98
2023-09-17T06:51:16.052Z,25.27
2023-09-17T06:53:42.552Z,25.67
2023-09-17T06:56:11.782Z,24.85
2023-09-17T06:58:38.272Z,24.35
2023-09-17T07:01:05.300Z,24.98
2023-09-17T07:03:32.132Z,25.98
2023-09-17T07:05:59.500Z,25.17
2023-09-17T07:08:26.202Z,22.45
2023-09-17T07:10:52.699Z,23.38
2023-09-17T07:13:19.147Z,24.80
2023-09-17T07:15:45.907Z,25.80
2023-09-17T07:18:13.661Z,24.35
2023-09-17T07:20:40.234Z,22.67
2023-09-17T07:23:06.719Z,19.95
2023-09-17T07:25:33.215Z,25.50
2023-09-17T07:28:06.060Z,25.08
2023-09-17T07:30:33.054Z,24.60
2023-09-17T07:32:59.765Z,25.17
2023-09-17T07:35:26.359Z,24.02
2023-09-17T07:37:52.855Z,24.70
2023-09-17T07:40:19.505Z,24.92
2023-09-17T07:42:46.727Z,24.55
2023-09-17T07:45:15.010Z,25.48
2023-09-17T07:47:41.834Z,25.10
2023-09-17T07:50:08.540Z,24.60
2023-09-17T07:52:35.020Z,24.02
2023-09-17T07:55:01.626Z,22.95
2023-09-17T07:57:28.182Z,24.40
2023-09-17T07:59:54.621Z,21.58
2023-09-17T08:02:21.408Z,19.02
2023-09-17T08:04:48.070Z,22.83
2023-09-17T08:07:14.638Z,23.65
2023-09-17T08:09:41.456Z,22.67
2023-09-17T08:12:08.040Z,24.17
2023-09-17T08:14:35.760Z,23.90
2023-09-17T08:17:03.440Z,22.58
2023-09-17T08:19:30.721Z,20.65
2023-09-17T08:21:57.428Z,24.13
2023-09-17T08:24:26.234Z,24.30
2023-09-17T08:26:56.174Z,24.95
2023-09-17T08:29:22.712Z,24.67
2023-09-17T08:31:49.351Z,24.85
2023-09-17T08:34:16.039Z,24.60
2023-09-17T08:36:42.580Z,25.20
2023-09-17T08:39:09.090Z,24.70
2023-09-17T08:41:36.934Z,25.33
2023-09-17T08:44:05.259Z,26.85
2023-09-17T08:46:32.083Z,26.15
2023-09-17T08:49:00.404Z,25.05
2023-09-17T08:51:27.494Z,24.77
2023-09-17T08:53:58.125Z,23.67
2023-09-17T08:56:25.039Z,22.58
2023-09-17T08:58:53.269Z,22.52
2023-09-17T09:01:24.019Z,22.67
2023-09-17T09:03:52.561Z,21.85
2023-09-17T09:06:21.147Z,21.33
2023-09-17T09:08:48.641Z,21.88
2023-09-17T09:11:15.353Z,18.02
2023-09-17T09:13:42.257Z,18.23
2023-09-17T09:16:08.843Z,19.95
2023-09-17T09:18:36.295Z,19.73
2023-09-17T09:21:02.913Z,18.92
2023-09-17T09:23:29.366Z,20.85
2023-09-17T09:25:55.881Z,20.77
2023-09-17T09:28:22.358Z,20.90
2023-09-17T09:30:48.974Z,20.73
2023-09-17T09:33:17.609Z,17.65
2023-09-17T09:35:45.031Z,21.00
2023-09-17T09:38:12.198Z,20.50
2023-09-17T09:40:39.299Z,22.27
2023-09-17T09:43:05.905Z,23.67
2023-09-17T09:45:40.116Z,24.25
2023-09-17T09:48:13.574Z,25.55
2023-09-17T09:50:40.087Z,24.80
2023-09-17T09:53:06.642Z,25.55
2023-09-17T09:55:33.640Z,25.73
2023-09-17T09:58:00.772Z,25.05
2023-09-17T10:00:28.208Z,25.88
2023-09-17T10:02:55.183Z,25.13
2023-09-17T10:05:34.488Z,24.67
2023-09-17T10:08:08.016Z,27.98
2023-09-17T10:10:35.705Z,25.80
2023-09-17T10:13:05.613Z,27.67
2023-09-17T10:15:32.853Z,26.20
2023-09-17T10:18:00.539Z,29.00
2023-09-17T10:20:27.789Z,28.25
2023-09-17T10:22:54.686Z,25.15
2023-09-17T10:25:22.014Z,27.33
2023-09-17T10:27:50.872Z,24.92
2023-09-17T10:30:18.895Z,24.33
2023-09-17T10:32:48.432Z,26.50
2023-09-17T10:35:18.177Z,27.55
2023-09-17T10:37:45.080Z,27.52
2023-09-17T10:40:13.457Z,27.13
2023-09-17T10:42:40.235Z,30.13
2023-09-17T10:45:09.503Z,26.85
2023-09-17T10:47:38.963Z,28.38
2023-09-17T10:50:06.019Z,26.65
2023-09-17T10:52:33.426Z,27.40
2023-09-17T10:55:00.279Z,28.00
2023-09-17T10:57:33.678Z,28.23
2023-09-17T11:00:01.621Z,27.48
2023-09-17T11:02:30.063Z,27.27
2023-09-17T11:04:57.039Z,26.88
2023-09-17T11:07:23.626Z,28.20
2023-09-17T11:09:52.193Z,28.08
2023-09-17T11:12:24.038Z,31.00
2023-09-17T11:14:51.228Z,29.30
2023-09-17T11:17:19.087Z,28.27
2023-09-17T11:19:45.691Z,31.42
2023-09-17T11:22:13.398Z,29.40
2023-09-17T11:24:40.294Z,31.35
2023-09-17T11:27:08.959Z,29.95
2023-09-17T11:29:38.236Z,32.53
2023-09-17T11:32:05.378Z,31.27
2023-09-17T11:34:32.485Z,31.95
2023-09-17T11:36:59.181Z,33.35
2023-09-17T11:39:26.114Z,35.15
2023-09-17T11:41:55.239Z,36.38
2023-09-17T11:44:22.506Z,35.83
2023-09-17T11:46:49.773Z,33.67
2023-09-17T11:49:16.873Z,35.80
2023-09-17T11:51:47.342Z,36.83
2023-09-17T11:54:16.909Z,34.17
2023-09-17T11:56:47.683Z,35.45
2023-09-17T11:59:17.240Z,34.92
2023-09-17T12:01:48.482Z,37.17
2023-09-17T12:04:15.773Z,36.88
2023-09-17T12:06:43.364Z,36.63
2023-09-17T12:09:39.243Z,37.15
2023-09-17T12:12:08.701Z,37.33
2023-09-17T12:14:35.383Z,36.10
2023-09-17T12:17:05.400Z,37.63
2023-09-17T12:19:32.068Z,36.33
2023-09-17T12:22:00.816Z,37.40
2023-09-17T12:24:39.406Z,36.72
2023-09-17T12:27:08.622Z,34.15
2023-09-17T12:29:36.620Z,36.33
2023-09-17T12:32:03.922Z,36.60
2023-09-17T12:34:30.536Z,36.25
2023-09-17T12:36:57.234Z,38.10
2023-09-17T12:39:24.645Z,39.03
2023-09-17T12:41:53.516Z,38.25
2023-09-17T12:44:20.208Z,35.90
2023-09-17T12:46:47.627Z,35.53
2023-09-17T12:49:14.498Z,36.58
2023-09-17T12:51:41.036Z,37.00
2023-09-17T12:54:09.995Z,35.97
2023-09-17T12:56:38.624Z,36.42
2023-09-17T12:59:05.199Z,35.38
2023-09-17T13:01:31.916Z,35.67
2023-09-17T13:04:05.882Z,34.78
2023-09-17T13:06:36.122Z,32.97
2023-09-17T13:09:03.866Z,32.70
2023-09-17T13:11:30.480Z,32.83
2023-09-17T13:13:58.261Z,32.10
2023-09-17T13:16:24.870Z,31.15
2023-09-17T13:18:54.363Z,32.92
2023-09-17T13:21:21.300Z,30.98
2023-09-17T13:23:48.325Z,29.27
2023-09-17T13:26:15.538Z,31.58
2023-09-17T13:28:42.348Z,29.20
2023-09-17T13:31:09.135Z,28.45
2023-09-17T13:33:37.669Z,29.35
2023-09-17T13:36:08.818Z,28.88
2023-09-17T13:38:35.886Z,28.67
2023-09-17T13:41:02.866Z,27.73
2023-09-17T13:43:29.450Z,26.58
2023-09-17T13:45:56.919Z,25.00
2023-09-17T13:48:25.885Z,25.08
2023-09-17T13:50:52.573Z,26.75
2023-09-17T13:53:19.449Z,25.30
2023-09-17T13:55:46.484Z,26.40
2023-09-17T13:58:14.740Z,27.63
2023-09-17T14:00:41.516Z,27.00
2023-09-17T14:03:14.245Z,26.90
2023-09-17T14:05:44.542Z,24.90
2023-09-17T14:08:12.511Z,24.40
2023-09-17T14:10:39.172Z,23.95
2023-09-17T14:13:05.909Z,23.90
2023-09-17T14:15:36.209Z,25.90
2023-09-17T14:18:03.063Z,26.42
2023-09-17T14:20:30.529Z,24.25
2023-09-17T14:22:57.413Z,24.00
2023-09-17T14:25:24.464Z,23.67
2023-09-17T14:27:51.003Z,23.05
2023-09-17T14:30:23.261Z,23.50
2023-09-17T14:32:51.545Z,22.73
2023-09-17T14:35:18.411Z,22.40
2023-09-17T14:37:45.573Z,22.50
2023-09-17T14:40:12.225Z,22.60
2023-09-17T14:42:39.911Z,23.30
2023-09-17T14:45:06.695Z,23.10
2023-09-17T14:47:33.251Z,22.25
2023-09-17T14:49:59.822Z,23.40
2023-09-17T14:52:26.445Z,22.63
2023-09-17T14:54:56.233Z,22.90
2023-09-17T14:57:22.715Z,24.10
2023-09-17T14:59:49.594Z,22.30
2023-09-17T15:02:17.604Z,22.67
2023-09-17T15:04:44.313Z,24.05
2023-09-17T15:07:13.336Z,21.38
2023-09-17T15:09:39.914Z,21.67
2023-09-17T15:12:06.782Z,20.75
2023-09-17T15:14:33.319Z,21.60
2023-09-17T15:16:59.981Z,21.00
2023-09-17T15:19:29.629Z,21.45
2023-09-17T15:21:56.161Z,21.23
2023-09-17T15:24:22.762Z,21.73
2023-09-17T15:26:49.227Z,20.25
2023-09-17T15:29:16.132Z,20.58
2023-09-17T15:31:42.724Z,20.45
2023-09-17T15:34:09.753Z,19.38
2023-09-17T15:36:38.631Z,20.58
2023-09-17T15:39:06.367Z,21.50
2023-09-17T15:41:32.869Z,20.50
2023-09-17T15:44:00.403Z,20.33
2023-09-17T15:46:26.947Z,21.02
2023-09-17T15:48:56.244Z,21.48
2023-09-17T15:51:22.819Z,20.17
2023-09-17T15:53:49.244Z,20.38
2023-09-17T15:56:15.792Z,20.42
2023-09-17T15:58:42.354Z,19.35
2023-09-17T16:01:10.038Z,20.33
2023-09-17T16:03:36.624Z,19.35
2023-09-17T16:06:03.350Z,19.80
2023-09-17T16:08:29.827Z,20.25
2023-09-17T16:10:56.659Z,19.52
2023-09-17T16:13:23.380Z,20.70
2023-09-17T16:15:52.866Z,19.80
2023-09-17T16:18:19.400Z,20.15
2023-09-17T16:20:45.970Z,21.80
2023-09-17T16:23:12.587Z,20.10
2023-09-17T16:25:39.330Z,19.83
2023-09-17T16:28:06.361Z,21.02
2023-09-17T16:30:32.870Z,21.15
2023-09-17T16:32:59.580Z,21.17
2023-09-17T16:35:26.430Z,20.25
2023-09-17T16:37:54.077Z,20.25
2023-09-17T16:40:21.646Z,20.20
2023-09-17T16:43:01.745Z,21.15
2023-09-17T16:45:32.594Z,19.73
2023-09-17T16:47:59.552Z,20.85
2023-09-17T16:50:29.848Z,20.75
2023-09-17T16:52:56.643Z,20.42
2023-09-17T16:55:23.226Z,12.93
2023-09-17T16:57:51.019Z,16.40
2023-09-17T17:00:17.536Z,15.57
2023-09-17T17:02:44.255Z,17.15
2023-09-17T17:05:11.316Z,18.60
2023-09-17T17:07:38.040Z,20.27
2023-09-17T17:10:04.894Z,19.35
2023-09-17T17:12:33.036Z,19.02
2023-09-17T17:14:59.502Z,15.40
2023-09-17T17:17:26.166Z,19.20
2023-09-17T17:19:52.752Z,21.67
2023-09-17T17:22:19.226Z,19.02
2023-09-17T17:24:45.712Z,20.90
2023-09-17T17:27:12.383Z,21.20
2023-09-17T17:29:38.851Z,19.45
2023-09-17T17:32:05.407Z,21.52
2023-09-17T17:34:37.237Z,21.58
2023-09-17T17:37:05.180Z,23.80
2023-09-17T17:39:31.779Z,24.63
2023-09-17T17:41:58.555Z,24.85
2023-09-17T17:44:25.533Z,24.75
2023-09-17T17:46:52.046Z,26.67
2023-09-17T17:49:18.527Z,26.35
2023-09-17T17:51:45.059Z,27.70
2023-09-17T17:54:11.524Z,24.85
2023-09-17T17:56:39.129Z,27.50
2023-09-17T17:59:05.796Z,28.35
2023-09-17T18:01:32.453Z,27.80
2023-09-17T18:03:59.019Z,28.85
2023-09-17T18:06:25.871Z,27.75
2023-09-17T18:08:52.823Z,27.45
2023-09-17T18:11:20.098Z,27.48
2023-09-17T18:13:47.455Z,27.40
2023-09-17T18:16:16.422Z,26.05
2023-09-17T18:18:45.238Z,26.65
2023-09-17T18:21:12.461Z,25.55
2023-09-17T18:23:38.947Z,27.55
2023-09-17T18:26:05.471Z,27.02
2023-09-17T18:28:31.976Z,25.13
2023-09-17T18:30:58.833Z,27.15
2023-09-17T18:33:25.436Z,26.67
2023-09-17T18:35:52.275Z,25.70
2023-09-17T18:38:20.219Z,26.48
2023-09-17T18:40:46.738Z,26.13
2023-09-17T18:43:13.287Z,26.35
2023-09-17T18:45:39.861Z,25.52
2023-09-17T18:48:06.478Z,27.08
2023-09-17T18:50:34.332Z,27.10
2023-09-17T18:53:01.242Z,26.77
2023-09-17T18:55:28.447Z,27.77
2023-09-17T18:57:55.372Z,26.20
2023-09-17T19:00:25.387Z,26.27
2023-09-17T19:02:52.123Z,26.70
2023-09-17T19:05:18.633Z,26.55
2023-09-17T19:07:45.711Z,28.95
2023-09-17T19:10:12.450Z,29.08
2023-09-17T19:12:39.459Z,29.33
2023-09-17T19:15:07.812Z,30.33
2023-09-17T19:17:35.775Z,29.83
2023-09-17T19:20:02.610Z,27.35
2023-09-17T19:22:29.100Z,26.35
2023-09-17T19:24:55.591Z,28.40
2023-09-17T19:27:22.046Z,29.25
2023-09-17T19:29:48.912Z,30.65
2023-09-17T19:32:15.741Z,29.20
2023-09-17T19:34:42.263Z,29.55
2023-09-17T19:37:11.563Z,28.50
2023-09-17T19:39:38.166Z,28.13
2023-09-17T19:42:04.768Z,29.20
2023-09-17T19:44:31.286Z,30.90
2023-09-17T19:47:00.045Z,29.38
2023-09-17T19:49:27.016Z,30.80
2023-09-17T19:51:53.519Z,30.27
2023-09-17T19:54:20.120Z,29.08
2023-09-17T19:56:47.778Z,27.33
2023-09-17T19:59:14.472Z,30.15
2023-09-17T20:01:41.431Z,28.42
2023-09-17T20:04:08.261Z,29.02
2023-09-17T20:06:47.724Z,30.10
2023-09-17T20:09:24.330Z,28.30
2023-09-17T20:11:50.860Z,29.38
2023-09-17T20:14:17.511Z,29.52
2023-09-17T20:16:46.316Z,29.90
2023-09-17T20:19:12.920Z,30.20
2023-09-17T20:21:41.210Z,29.85
2023-09-17T20:24:07.810Z,29.35
2023-09-17T20:26:37.243Z,30.65
2023-09-17T20:29:04.892Z,30.17
2023-09-17T20:31:33.633Z,29.38
2023-09-17T20:34:00.578Z,29.98
2023-09-17T20:36:27.129Z,28.33
2023-09-17T20:38:55.445Z,27.08
2023-09-17T20:41:24.055Z,28.95
2023-09-17T20:43:52.616Z,27.52
2023-09-17T20:46:19.033Z,26.50
2023-09-17T20:48:48.392Z,25.40
2023-09-17T20:51:15.259Z,26.33
2023-09-17T20:53:41.759Z,25.92
2023-09-17T20:56:08.372Z,24.98
2023-09-17T20:58:36.168Z,24.52
2023-09-17T21:01:02.934Z,24.88
2023-09-17T21:03:29.611Z,27.00
2023-09-17T21:05:57.135Z,24.25
2023-09-17T21:08:24.456Z,24.25
2023-09-17T21:10:51.155Z,24.80
2023-09-17T21:13:17.688Z,23.63
2023-09-17T21:15:44.211Z,25.52
2023-09-17T21:18:12.278Z,24.92
2023-09-17T21:20:38.801Z,23.90
2023-09-17T21:23:05.449Z,22.67
2023-09-17T21:25:32.591Z,24.70
2023-09-17T21:27:59.092Z,22.33
2023-09-17T21:30:25.630Z,22.77
2023-09-17T21:32:52.340Z,24.08
2023-09-17T21:35:19.157Z,23.38
2023-09-17T21:37:45.763Z,23.20
2023-09-17T21:40:12.569Z,23.35
2023-09-17T21:42:39.122Z,22.48
2023-09-17T21:45:06.179Z,22.20
2023-09-17T21:47:32.796Z,22.55
2023-09-17T21:50:01.123Z,22.45
2023-09-17T21:52:29.574Z,20.95
2023-09-17T21:54:56.318Z,20.15
2023-09-17T21:57:23.223Z,20.40
2023-09-17T21:59:49.717Z,20.23
2023-09-17T22:02:16.437Z,20.98
2023-09-17T22:04:43.406Z,19.95
2023-09-17T22:07:10.240Z,21.60
2023-09-17T22:09:37.106Z,19.88
2023-09-17T22:12:07.977Z,19.45
2023-09-17T22:14:37.482Z,19.85
2023-09-17T22:17:04.137Z,19.05
2023-09-17T22:19:30.761Z,19.58
2023-09-17T22:21:57.392Z,21.02
2023-09-17T22:24:24.841Z,23.13
2023-09-17T22:26:51.437Z,23.05
2023-09-17T22:29:17.950Z,20.40
2023-09-17T22:31:44.565Z,20.70
2023-09-17T22:34:11.140Z,19.38
2023-09-17T22:36:37.940Z,19.02
2023-09-17T22:39:06.003Z,19.63
2023-09-17T22:41:32.570Z,20.08
2023-09-17T22:44:11.748Z,19.38
2023-09-17T22:46:38.928Z,19.92
2023-09-17T22:49:05.925Z,19.48
2023-09-17T22:51:32.409Z,18.48
2023-09-17T22:53:59.244Z,19.08
2023-09-17T22:56:26.061Z,18.00
2023-09-17T22:58:52.848Z,17.70
2023-09-17T23:01:20.834Z,17.17
2023-09-17T23:03:47.922Z,17.55
2023-09-17T23:06:14.543Z,17.83
2023-09-17T23:08:41.745Z,17.58
2023-09-17T23:11:08.921Z,17.90
2023-09-17T23:13:35.809Z,17.80
2023-09-17T23:16:02.494Z,16.35
2023-09-17T23:18:29.194Z,16.35
2023-09-17T23:20:55.712Z,17.08
2023-09-17T23:23:22.341Z,17.48
2023-09-17T23:25:49.738Z,16.77
2023-09-17T23:28:16.214Z,16.20
2023-09-17T23:30:42.656Z,17.77
2023-09-17T23:33:11.172Z,17.30
2023-09-17T23:35:39.879Z,16.67
2023-09-17T23:38:06.384Z,16.42
2023-09-17T23:40:33.111Z,17.35
2023-09-17T23:42:59.863Z,18.75
2023-09-17T23:45:27.070Z,17.42
2023-09-17T23:47:53.551Z,18.30
2023-09-17T23:50:20.120Z,18.00
2023-09-17T23:52:46.703Z,18.63
2023-09-17T23:55:13.485Z,17.42
2023-09-17T23:57:40.189Z,16.45
